Frontenac, Minnesota
Current Conditions -  °F | °C
As of 7:11 AM on Thursday 27 Nov 2014 (Local Time) from KRGK Reporting Station
NA  
Wind Chill: -10°   Ceiling: NA
Heat Index:   Visibility: 10mi
Dew Point: -6°   Wind: 5mph
Humidity: 78%   Direction: 300°WNW
Pressure: 30.49"   Gusts: NA
Location:  44.51°N, 92.36°W
Report Text: KRGK 271311Z AUTO 30004KT 10SM M18/M21 A3049 RMK AO2
Loading
Personal Weather Stations






























Interactive Weather Map New forecast layout! Learn more

10-Day Weather Forecast

Advertisements
Track Severe Weather on mobile